sensor_id;sensor_type;location;lat;lon;timestamp;P1;durP1;ratioP1;P2;durP2;ratioP2
29854;SDS011;16733;48.738;9.106;2023-02-22T00:01:04;7.03;;;2.85;;
29854;SDS011;16733;48.738;9.106;2023-02-22T00:03:43;8.88;;;2.95;;
29854;SDS011;16733;48.738;9.106;2023-02-22T00:06:14;7.22;;;2.42;;
29854;SDS011;16733;48.738;9.106;2023-02-22T00:08:41;4.97;;;2.42;;
29854;SDS011;16733;48.738;9.106;2023-02-22T00:11:07;9.05;;;3.30;;
29854;SDS011;16733;48.738;9.106;2023-02-22T00:13:33;7.05;;;2.58;;
29854;SDS011;16733;48.738;9.106;2023-02-22T00:16:00;7.38;;;2.45;;
29854;SDS011;16733;48.738;9.106;2023-02-22T00:18:26;5.60;;;2.47;;
29854;SDS011;16733;48.738;9.106;2023-02-22T00:20:53;5.45;;;2.20;;
29854;SDS011;16733;48.738;9.106;2023-02-22T00:23:20;6.22;;;2.67;;
29854;SDS011;16733;48.738;9.106;2023-02-22T00:25:47;7.32;;;2.22;;
29854;SDS011;16733;48.738;9.106;2023-02-22T00:28:15;4.82;;;2.25;;
29854;SDS011;16733;48.738;9.106;2023-02-22T00:30:41;6.05;;;1.85;;
29854;SDS011;16733;48.738;9.106;2023-02-22T00:33:07;5.28;;;2.63;;
29854;SDS011;16733;48.738;9.106;2023-02-22T00:38:56;3.75;;;1.83;;
29854;SDS011;16733;48.738;9.106;2023-02-22T00:41:21;4.03;;;1.92;;
29854;SDS011;16733;48.738;9.106;2023-02-22T00:43:47;5.18;;;1.73;;
29854;SDS011;16733;48.738;9.106;2023-02-22T00:46:13;4.53;;;1.83;;
29854;SDS011;16733;48.738;9.106;2023-02-22T00:48:39;5.05;;;2.15;;
29854;SDS011;16733;48.738;9.106;2023-02-22T00:51:04;3.58;;;1.80;;
29854;SDS011;16733;48.738;9.106;2023-02-22T00:53:30;4.82;;;1.92;;
29854;SDS011;16733;48.738;9.106;2023-02-22T00:55:55;6.50;;;2.45;;
29854;SDS011;16733;48.738;9.106;2023-02-22T01:01:43;3.70;;;2.20;;
29854;SDS011;16733;48.738;9.106;2023-02-22T01:04:09;5.97;;;2.28;;
29854;SDS011;16733;48.738;9.106;2023-02-22T01:09:56;6.90;;;2.10;;
29854;SDS011;16733;48.738;9.106;2023-02-22T01:12:22;6.82;;;2.63;;
29854;SDS011;16733;48.738;9.106;2023-02-22T01:18:09;7.25;;;2.97;;
29854;SDS011;16733;48.738;9.106;2023-02-22T01:20:36;7.30;;;2.50;;
29854;SDS011;16733;48.738;9.106;2023-02-22T01:23:04;6.10;;;2.20;;
29854;SDS011;16733;48.738;9.106;2023-02-22T01:26:08;6.47;;;3.00;;
29854;SDS011;16733;48.738;9.106;2023-02-22T01:28:34;6.55;;;2.92;;
29854;SDS011;16733;48.738;9.106;2023-02-22T01:31:01;7.28;;;2.53;;
29854;SDS011;16733;48.738;9.106;2023-02-22T01:33:27;5.18;;;2.75;;
29854;SDS011;16733;48.738;9.106;2023-02-22T01:39:15;3.30;;;2.15;;
29854;SDS011;16733;48.738;9.106;2023-02-22T01:41:44;5.90;;;2.47;;
29854;SDS011;16733;48.738;9.106;2023-02-22T01:47:32;5.03;;;2.78;;
29854;SDS011;16733;48.738;9.106;2023-02-22T01:49:58;5.38;;;2.88;;
29854;SDS011;16733;48.738;9.106;2023-02-22T01:52:23;8.15;;;3.03;;
29854;SDS011;16733;48.738;9.106;2023-02-22T01:54:54;4.53;;;2.58;;
29854;SDS011;16733;48.738;9.106;2023-02-22T01:57:24;6.70;;;2.78;;
29854;SDS011;16733;48.738;9.106;2023-02-22T02:00:04;9.10;;;2.92;;
29854;SDS011;16733;48.738;9.106;2023-02-22T02:02:36;5.22;;;2.85;;
29854;SDS011;16733;48.738;9.106;2023-02-22T02:05:28;5.13;;;2.85;;
29854;SDS011;16733;48.738;9.106;2023-02-22T02:07:58;5.43;;;2.50;;
29854;SDS011;16733;48.738;9.106;2023-02-22T02:13:52;5.43;;;2.97;;
29854;SDS011;16733;48.738;9.106;2023-02-22T02:16:20;5.38;;;2.55;;
29854;SDS011;16733;48.738;9.106;2023-02-22T02:18:51;4.93;;;2.70;;
29854;SDS011;16733;48.738;9.106;2023-02-22T02:27:26;8.10;;;3.05;;
29854;SDS011;16733;48.738;9.106;2023-02-22T02:30:42;10.10;;;3.67;;
29854;SDS011;16733;48.738;9.106;2023-02-22T02:33:30;8.63;;;3.13;;
29854;SDS011;16733;48.738;9.106;2023-02-22T02:36:13;8.90;;;3.05;;
29854;SDS011;16733;48.738;9.106;2023-02-22T02:38:42;8.90;;;3.65;;
29854;SDS011;16733;48.738;9.106;2023-02-22T02:43:42;5.57;;;2.90;;
29854;SDS011;16733;48.738;9.106;2023-02-22T02:46:19;10.60;;;3.58;;
29854;SDS011;16733;48.738;9.106;2023-02-22T02:48:55;10.13;;;3.25;;
29854;SDS011;16733;48.738;9.106;2023-02-22T02:51:26;10.00;;;3.60;;
29854;SDS011;16733;48.738;9.106;2023-02-22T02:53:55;7.07;;;3.50;;
29854;SDS011;16733;48.738;9.106;2023-02-22T02:56:22;9.45;;;3.17;;
29854;SDS011;16733;48.738;9.106;2023-02-22T02:58:49;8.57;;;3.60;;
29854;SDS011;16733;48.738;9.106;2023-02-22T03:01:19;8.02;;;3.38;;
29854;SDS011;16733;48.738;9.106;2023-02-22T03:15:54;8.80;;;3.40;;
29854;SDS011;16733;48.738;9.106;2023-02-22T03:27:00;6.80;;;2.90;;
29854;SDS011;16733;48.738;9.106;2023-02-22T03:29:27;9.90;;;3.28;;
29854;SDS011;16733;48.738;9.106;2023-02-22T03:31:59;8.80;;;3.58;;
29854;SDS011;16733;48.738;9.106;2023-02-22T03:37:52;8.27;;;3.55;;
29854;SDS011;16733;48.738;9.106;2023-02-22T03:40:22;8.93;;;3.58;;
29854;SDS011;16733;48.738;9.106;2023-02-22T03:46:14;9.52;;;3.58;;
29854;SDS011;16733;48.738;9.106;2023-02-22T03:51:18;6.20;;;3.00;;
29854;SDS011;16733;48.738;9.106;2023-02-22T03:53:44;8.77;;;3.15;;
29854;SDS011;16733;48.738;9.106;2023-02-22T03:56:12;9.40;;;3.60;;
29854;SDS011;16733;48.738;9.106;2023-02-22T03:58:44;7.95;;;2.97;;
29854;SDS011;16733;48.738;9.106;2023-02-22T04:01:14;8.35;;;4.30;;
29854;SDS011;16733;48.738;9.106;2023-02-22T04:03:39;7.28;;;3.45;;
29854;SDS011;16733;48.738;9.106;2023-02-22T04:09:28;5.30;;;3.25;;
29854;SDS011;16733;48.738;9.106;2023-02-22T04:15:18;9.18;;;3.30;;
29854;SDS011;16733;48.738;9.106;2023-02-22T04:17:46;10.38;;;3.25;;
29854;SDS011;16733;48.738;9.106;2023-02-22T04:23:33;8.18;;;2.90;;
29854;SDS011;16733;48.738;9.106;2023-02-22T04:25:59;12.77;;;3.30;;
29854;SDS011;16733;48.738;9.106;2023-02-22T04:28:25;7.30;;;3.65;;
29854;SDS011;16733;48.738;9.106;2023-02-22T04:34:12;9.68;;;3.28;;
29854;SDS011;16733;48.738;9.106;2023-02-22T04:36:38;11.25;;;3.08;;
29854;SDS011;16733;48.738;9.106;2023-02-22T04:42:28;6.88;;;3.17;;
29854;SDS011;16733;48.738;9.106;2023-02-22T04:48:16;5.70;;;2.80;;
29854;SDS011;16733;48.738;9.106;2023-02-22T04:50:41;7.28;;;3.33;;
29854;SDS011;16733;48.738;9.106;2023-02-22T04:53:07;6.97;;;3.13;;
29854;SDS011;16733;48.738;9.106;2023-02-22T04:55:33;8.27;;;3.83;;
29854;SDS011;16733;48.738;9.106;2023-02-22T05:01:20;9.98;;;3.40;;
29854;SDS011;16733;48.738;9.106;2023-02-22T05:03:47;8.35;;;3.72;;
29854;SDS011;16733;48.738;9.106;2023-02-22T05:06:13;12.00;;;4.18;;
29854;SDS011;16733;48.738;9.106;2023-02-22T05:08:40;16.20;;;5.25;;
29854;SDS011;16733;48.738;9.106;2023-02-22T05:11:05;13.07;;;4.22;;
29854;SDS011;16733;48.738;9.106;2023-02-22T05:13:31;9.55;;;3.97;;
29854;SDS011;16733;48.738;9.106;2023-02-22T05:15:56;9.13;;;3.83;;
29854;SDS011;16733;48.738;9.106;2023-02-22T05:18:22;9.85;;;3.75;;
29854;SDS011;16733;48.738;9.106;2023-02-22T05:20:47;11.32;;;3.88;;
29854;SDS011;16733;48.738;9.106;2023-02-22T05:23:13;10.38;;;3.60;;
29854;SDS011;16733;48.738;9.106;2023-02-22T05:25:39;12.10;;;3.50;;
29854;SDS011;16733;48.738;9.106;2023-02-22T05:28:07;7.55;;;3.92;;
29854;SDS011;16733;48.738;9.106;2023-02-22T05:30:36;13.95;;;4.10;;
29854;SDS011;16733;48.738;9.106;2023-02-22T05:36:27;9.95;;;3.72;;
29854;SDS011;16733;48.738;9.106;2023-02-22T05:38:53;9.57;;;3.40;;
29854;SDS011;16733;48.738;9.106;2023-02-22T05:41:19;12.27;;;4.00;;
29854;SDS011;16733;48.738;9.106;2023-02-22T05:50:29;7.32;;;3.53;;
29854;SDS011;16733;48.738;9.106;2023-02-22T05:52:54;9.25;;;4.07;;
29854;SDS011;16733;48.738;9.106;2023-02-22T05:55:21;15.65;;;3.90;;
29854;SDS011;16733;48.738;9.106;2023-02-22T05:57:47;12.07;;;4.72;;
29854;SDS011;16733;48.738;9.106;2023-02-22T06:03:35;8.75;;;4.50;;
29854;SDS011;16733;48.738;9.106;2023-02-22T06:06:01;7.45;;;3.75;;
29854;SDS011;16733;48.738;9.106;2023-02-22T06:08:27;9.20;;;4.07;;
29854;SDS011;16733;48.738;9.106;2023-02-22T06:14:14;8.00;;;4.15;;
29854;SDS011;16733;48.738;9.106;2023-02-22T06:16:40;10.55;;;4.80;;
29854;SDS011;16733;48.738;9.106;2023-02-22T06:22:27;10.80;;;4.68;;
29854;SDS011;16733;48.738;9.106;2023-02-22T06:24:53;12.07;;;4.65;;
29854;SDS011;16733;48.738;9.106;2023-02-22T06:30:40;10.23;;;4.68;;
29854;SDS011;16733;48.738;9.106;2023-02-22T06:33:10;8.63;;;3.80;;
29854;SDS011;16733;48.738;9.106;2023-02-22T06:35:36;8.40;;;4.60;;
29854;SDS011;16733;48.738;9.106;2023-02-22T06:41:23;9.68;;;4.47;;
29854;SDS011;16733;48.738;9.106;2023-02-22T06:43:49;11.23;;;4.88;;
29854;SDS011;16733;48.738;9.106;2023-02-22T06:49:36;10.90;;;4.30;;
29854;SDS011;16733;48.738;9.106;2023-02-22T06:52:05;11.57;;;4.55;;
29854;SDS011;16733;48.738;9.106;2023-02-22T06:54:32;9.07;;;4.70;;
29854;SDS011;16733;48.738;9.106;2023-02-22T07:00:21;15.15;;;5.00;;
29854;SDS011;16733;48.738;9.106;2023-02-22T07:02:49;11.18;;;5.20;;
29854;SDS011;16733;48.738;9.106;2023-02-22T07:08:37;14.98;;;4.28;;
29854;SDS011;16733;48.738;9.106;2023-02-22T07:14:25;13.82;;;4.68;;
29854;SDS011;16733;48.738;9.106;2023-02-22T07:16:50;10.40;;;5.13;;
29854;SDS011;16733;48.738;9.106;2023-02-22T07:19:16;15.40;;;5.22;;
29854;SDS011;16733;48.738;9.106;2023-02-22T07:21:41;10.18;;;5.32;;
29854;SDS011;16733;48.738;9.106;2023-02-22T07:24:07;14.90;;;5.28;;
29854;SDS011;16733;48.738;9.106;2023-02-22T07:26:37;9.38;;;5.22;;
29854;SDS011;16733;48.738;9.106;2023-02-22T07:29:04;18.38;;;5.53;;
29854;SDS011;16733;48.738;9.106;2023-02-22T07:31:33;11.13;;;5.43;;
29854;SDS011;16733;48.738;9.106;2023-02-22T07:34:00;14.60;;;5.63;;
29854;SDS011;16733;48.738;9.106;2023-02-22T07:36:25;13.27;;;5.63;;
29854;SDS011;16733;48.738;9.106;2023-02-22T07:38:51;12.70;;;5.20;;
29854;SDS011;16733;48.738;9.106;2023-02-22T07:41:16;11.23;;;5.60;;
29854;SDS011;16733;48.738;9.106;2023-02-22T07:43:42;19.45;;;5.47;;
29854;SDS011;16733;48.738;9.106;2023-02-22T07:46:07;16.85;;;4.80;;
29854;SDS011;16733;48.738;9.106;2023-02-22T07:51:55;9.48;;;4.40;;
29854;SDS011;16733;48.738;9.106;2023-02-22T07:54:21;18.58;;;4.80;;
29854;SDS011;16733;48.738;9.106;2023-02-22T07:56:46;8.45;;;4.88;;
29854;SDS011;16733;48.738;9.106;2023-02-22T08:02:34;9.15;;;4.38;;
29854;SDS011;16733;48.738;9.106;2023-02-22T08:05:00;10.15;;;5.20;;
29854;SDS011;16733;48.738;9.106;2023-02-22T08:07:25;14.45;;;6.15;;
29854;SDS011;16733;48.738;9.106;2023-02-22T08:13:19;16.05;;;4.70;;
29854;SDS011;16733;48.738;9.106;2023-02-22T08:15:46;11.98;;;4.65;;
29854;SDS011;16733;48.738;9.106;2023-02-22T08:18:14;11.80;;;5.00;;
29854;SDS011;16733;48.738;9.106;2023-02-22T08:20:42;8.45;;;4.15;;
29854;SDS011;16733;48.738;9.106;2023-02-22T08:26:18;11.15;;;4.30;;
29854;SDS011;16733;48.738;9.106;2023-02-22T08:28:44;11.32;;;4.45;;
29854;SDS011;16733;48.738;9.106;2023-02-22T08:31:10;12.10;;;4.85;;
29854;SDS011;16733;48.738;9.106;2023-02-22T08:33:35;14.98;;;4.75;;
29854;SDS011;16733;48.738;9.106;2023-02-22T08:36:01;16.83;;;5.30;;
29854;SDS011;16733;48.738;9.106;2023-02-22T08:38:28;13.32;;;5.07;;
29854;SDS011;16733;48.738;9.106;2023-02-22T08:40:55;9.00;;;5.05;;
29854;SDS011;16733;48.738;9.106;2023-02-22T08:46:43;10.52;;;4.60;;
29854;SDS011;16733;48.738;9.106;2023-02-22T08:49:09;18.83;;;4.28;;
29854;SDS011;16733;48.738;9.106;2023-02-22T08:51:35;22.83;;;5.45;;
29854;SDS011;16733;48.738;9.106;2023-02-22T08:54:01;19.15;;;4.90;;
29854;SDS011;16733;48.738;9.106;2023-02-22T08:56:27;10.43;;;4.80;;
29854;SDS011;16733;48.738;9.106;2023-02-22T08:58:54;12.68;;;4.05;;
29854;SDS011;16733;48.738;9.106;2023-02-22T09:01:21;10.48;;;3.85;;
29854;SDS011;16733;48.738;9.106;2023-02-22T09:03:48;8.00;;;3.60;;
29854;SDS011;16733;48.738;9.106;2023-02-22T09:09:36;14.25;;;4.05;;
29854;SDS011;16733;48.738;9.106;2023-02-22T09:15:25;7.97;;;3.67;;
29854;SDS011;16733;48.738;9.106;2023-02-22T09:17:51;8.23;;;4.00;;
29854;SDS011;16733;48.738;9.106;2023-02-22T09:20:19;8.95;;;3.88;;
29854;SDS011;16733;48.738;9.106;2023-02-22T09:22:46;13.65;;;4.00;;
29854;SDS011;16733;48.738;9.106;2023-02-22T09:25:13;19.02;;;4.40;;
29854;SDS011;16733;48.738;9.106;2023-02-22T09:27:39;9.13;;;3.78;;
29854;SDS011;16733;48.738;9.106;2023-02-22T09:30:07;6.47;;;3.47;;
29854;SDS011;16733;48.738;9.106;2023-02-22T09:32:40;9.40;;;3.13;;
29854;SDS011;16733;48.738;9.106;2023-02-22T09:38:27;14.52;;;4.00;;
29854;SDS011;16733;48.738;9.106;2023-02-22T09:40:57;7.95;;;3.13;;
29854;SDS011;16733;48.738;9.106;2023-02-22T09:44:19;7.33;;;3.07;;
29854;SDS011;16733;48.738;9.106;2023-02-22T09:46:52;5.68;;;2.90;;
29854;SDS011;16733;48.738;9.106;2023-02-22T09:53:26;10.93;;;5.22;;
29854;SDS011;16733;48.738;9.106;2023-02-22T09:55:53;9.18;;;5.10;;
29854;SDS011;16733;48.738;9.106;2023-02-22T09:58:27;8.37;;;5.10;;
29854;SDS011;16733;48.738;9.106;2023-02-22T10:07:04;19.40;;;5.10;;
29854;SDS011;16733;48.738;9.106;2023-02-22T10:09:50;7.35;;;4.63;;
29854;SDS011;16733;48.738;9.106;2023-02-22T10:20:55;13.43;;;5.57;;
29854;SDS011;16733;48.738;9.106;2023-02-22T10:23:35;13.77;;;4.28;;
29854;SDS011;16733;48.738;9.106;2023-02-22T10:26:19;21.55;;;4.63;;
29854;SDS011;16733;48.738;9.106;2023-02-22T10:28:55;14.40;;;4.80;;
29854;SDS011;16733;48.738;9.106;2023-02-22T10:31:40;9.55;;;4.53;;
29854;SDS011;16733;48.738;9.106;2023-02-22T10:34:14;9.25;;;4.18;;
29854;SDS011;16733;48.738;9.106;2023-02-22T10:36:44;10.52;;;4.22;;
29854;SDS011;16733;48.738;9.106;2023-02-22T10:39:19;15.45;;;4.85;;
29854;SDS011;16733;48.738;9.106;2023-02-22T10:42:35;13.15;;;3.78;;
29854;SDS011;16733;48.738;9.106;2023-02-22T10:45:00;7.85;;;4.25;;
29854;SDS011;16733;48.738;9.106;2023-02-22T10:47:26;8.13;;;3.67;;
29854;SDS011;16733;48.738;9.106;2023-02-22T10:53:14;12.43;;;3.42;;
29854;SDS011;16733;48.738;9.106;2023-02-22T10:59:02;6.38;;;3.30;;
29854;SDS011;16733;48.738;9.106;2023-02-22T11:06:24;10.43;;;3.88;;
29854;SDS011;16733;48.738;9.106;2023-02-22T11:08:50;10.15;;;3.85;;
29854;SDS011;16733;48.738;9.106;2023-02-22T11:17:40;10.77;;;3.90;;
29854;SDS011;16733;48.738;9.106;2023-02-22T11:20:06;16.50;;;4.07;;
29854;SDS011;16733;48.738;9.106;2023-02-22T11:22:39;8.38;;;3.80;;
29854;SDS011;16733;48.738;9.106;2023-02-22T11:25:06;8.63;;;3.42;;
29854;SDS011;16733;48.738;9.106;2023-02-22T11:27:33;9.98;;;3.70;;
29854;SDS011;16733;48.738;9.106;2023-02-22T11:32:44;10.52;;;3.90;;
29854;SDS011;16733;48.738;9.106;2023-02-22T11:35:56;7.43;;;4.15;;
29854;SDS011;16733;48.738;9.106;2023-02-22T11:38:39;6.90;;;3.95;;
29854;SDS011;16733;48.738;9.106;2023-02-22T11:41:20;17.77;;;4.20;;
29854;SDS011;16733;48.738;9.106;2023-02-22T11:43:51;10.88;;;4.53;;
29854;SDS011;16733;48.738;9.106;2023-02-22T11:57:54;9.82;;;4.40;;
29854;SDS011;16733;48.738;9.106;2023-02-22T12:00:14;9.43;;;4.93;;
29854;SDS011;16733;48.738;9.106;2023-02-22T12:06:31;12.50;;;4.95;;
29854;SDS011;16733;48.738;9.106;2023-02-22T12:15:07;8.15;;;4.55;;
29854;SDS011;16733;48.738;9.106;2023-02-22T12:18:38;14.68;;;5.72;;
29854;SDS011;16733;48.738;9.106;2023-02-22T12:21:11;10.82;;;5.35;;
29854;SDS011;16733;48.738;9.106;2023-02-22T12:23:44;10.45;;;5.47;;
29854;SDS011;16733;48.738;9.106;2023-02-22T12:26:21;11.32;;;5.20;;
29854;SDS011;16733;48.738;9.106;2023-02-22T12:28:54;10.48;;;5.72;;
29854;SDS011;16733;48.738;9.106;2023-02-22T12:31:45;12.43;;;5.82;;
29854;SDS011;16733;48.738;9.106;2023-02-22T12:37:38;11.20;;;6.32;;
29854;SDS011;16733;48.738;9.106;2023-02-22T12:43:33;11.25;;;6.30;;
29854;SDS011;16733;48.738;9.106;2023-02-22T12:46:11;10.25;;;6.43;;
29854;SDS011;16733;48.738;9.106;2023-02-22T12:54:20;15.82;;;6.72;;
29854;SDS011;16733;48.738;9.106;2023-02-22T13:02:57;11.88;;;6.25;;
29854;SDS011;16733;48.738;9.106;2023-02-22T13:08:38;12.38;;;6.38;;
29854;SDS011;16733;48.738;9.106;2023-02-22T13:13:48;15.45;;;8.38;;
29854;SDS011;16733;48.738;9.106;2023-02-22T13:16:25;12.75;;;7.03;;
29854;SDS011;16733;48.738;9.106;2023-02-22T13:19:23;16.75;;;6.80;;
29854;SDS011;16733;48.738;9.106;2023-02-22T13:32:12;12.18;;;6.70;;
29854;SDS011;16733;48.738;9.106;2023-02-22T13:35:14;14.55;;;6.50;;
29854;SDS011;16733;48.738;9.106;2023-02-22T13:52:41;15.10;;;6.45;;
29854;SDS011;16733;48.738;9.106;2023-02-22T13:55:14;19.83;;;7.50;;
29854;SDS011;16733;48.738;9.106;2023-02-22T13:58:31;14.05;;;5.22;;
29854;SDS011;16733;48.738;9.106;2023-02-22T14:00:57;9.38;;;6.05;;
29854;SDS011;16733;48.738;9.106;2023-02-22T14:03:29;13.25;;;5.78;;
29854;SDS011;16733;48.738;9.106;2023-02-22T14:06:35;18.92;;;6.22;;
29854;SDS011;16733;48.738;9.106;2023-02-22T14:09:06;12.10;;;6.00;;
29854;SDS011;16733;48.738;9.106;2023-02-22T14:17:42;15.32;;;7.45;;
29854;SDS011;16733;48.738;9.106;2023-02-22T14:23:33;15.82;;;7.47;;
29854;SDS011;16733;48.738;9.106;2023-02-22T14:32:11;16.17;;;7.07;;
29854;SDS011;16733;48.738;9.106;2023-02-22T14:34:43;12.25;;;7.18;;
29854;SDS011;16733;48.738;9.106;2023-02-22T14:40:47;18.55;;;6.90;;
29854;SDS011;16733;48.738;9.106;2023-02-22T14:46:38;11.43;;;6.35;;
29854;SDS011;16733;48.738;9.106;2023-02-22T14:49:06;13.55;;;6.40;;
29854;SDS011;16733;48.738;9.106;2023-02-22T14:51:43;14.20;;;7.72;;
29854;SDS011;16733;48.738;9.106;2023-02-22T14:56:55;13.77;;;7.70;;
29854;SDS011;16733;48.738;9.106;2023-02-22T14:59:36;14.82;;;7.70;;
29854;SDS011;16733;48.738;9.106;2023-02-22T15:02:26;15.18;;;7.88;;
29854;SDS011;16733;48.738;9.106;2023-02-22T15:04:52;15.98;;;7.28;;
29854;SDS011;16733;48.738;9.106;2023-02-22T15:09:52;24.48;;;7.13;;
29854;SDS011;16733;48.738;9.106;2023-02-22T15:15:54;27.65;;;8.05;;
29854;SDS011;16733;48.738;9.106;2023-02-22T15:21:47;19.83;;;8.32;;
29854;SDS011;16733;48.738;9.106;2023-02-22T15:24:18;19.65;;;7.72;;
29854;SDS011;16733;48.738;9.106;2023-02-22T15:26:48;25.42;;;7.82;;
29854;SDS011;16733;48.738;9.106;2023-02-22T15:29:15;15.20;;;7.03;;
29854;SDS011;16733;48.738;9.106;2023-02-22T15:35:13;14.80;;;7.72;;
29854;SDS011;16733;48.738;9.106;2023-02-22T15:40:45;11.60;;;6.55;;
29854;SDS011;16733;48.738;9.106;2023-02-22T15:43:18;12.65;;;7.18;;
29854;SDS011;16733;48.738;9.106;2023-02-22T15:51:36;16.80;;;7.80;;
29854;SDS011;16733;48.738;9.106;2023-02-22T15:57:27;14.05;;;7.28;;
29854;SDS011;16733;48.738;9.106;2023-02-22T15:59:54;19.20;;;8.32;;
29854;SDS011;16733;48.738;9.106;2023-02-22T16:05:44;14.45;;;7.50;;
29854;SDS011;16733;48.738;9.106;2023-02-22T16:08:19;22.13;;;9.20;;
29854;SDS011;16733;48.738;9.106;2023-02-22T16:17:22;14.85;;;7.20;;
29854;SDS011;16733;48.738;9.106;2023-02-22T16:22:43;18.77;;;9.00;;
29854;SDS011;16733;48.738;9.106;2023-02-22T16:28:37;38.13;;;17.50;;
29854;SDS011;16733;48.738;9.106;2023-02-22T16:31:15;21.48;;;9.50;;
29854;SDS011;16733;48.738;9.106;2023-02-22T16:37:16;15.85;;;7.95;;
29854;SDS011;16733;48.738;9.106;2023-02-22T16:43:10;20.77;;;10.05;;
29854;SDS011;16733;48.738;9.106;2023-02-22T16:45:42;22.15;;;9.82;;
29854;SDS011;16733;48.738;9.106;2023-02-22T16:48:41;23.73;;;8.40;;
29854;SDS011;16733;48.738;9.106;2023-02-22T16:51:06;17.88;;;8.00;;
29854;SDS011;16733;48.738;9.106;2023-02-22T16:53:42;17.50;;;8.10;;
29854;SDS011;16733;48.738;9.106;2023-02-22T16:56:08;15.32;;;7.18;;
29854;SDS011;16733;48.738;9.106;2023-02-22T17:02:01;19.25;;;8.23;;
29854;SDS011;16733;48.738;9.106;2023-02-22T17:04:31;17.85;;;8.40;;
29854;SDS011;16733;48.738;9.106;2023-02-22T17:06:57;18.20;;;8.32;;
29854;SDS011;16733;48.738;9.106;2023-02-22T17:09:23;14.57;;;7.35;;
29854;SDS011;16733;48.738;9.106;2023-02-22T17:11:49;16.88;;;7.95;;
29854;SDS011;16733;48.738;9.106;2023-02-22T17:14:18;17.63;;;9.00;;
29854;SDS011;16733;48.738;9.106;2023-02-22T17:16:47;15.98;;;8.65;;
29854;SDS011;16733;48.738;9.106;2023-02-22T17:19:20;15.10;;;7.85;;
29854;SDS011;16733;48.738;9.106;2023-02-22T17:21:58;18.67;;;7.72;;
29854;SDS011;16733;48.738;9.106;2023-02-22T17:24:29;15.68;;;7.45;;
29854;SDS011;16733;48.738;9.106;2023-02-22T17:26:57;17.45;;;7.40;;
29854;SDS011;16733;48.738;9.106;2023-02-22T17:29:23;18.52;;;7.70;;
29854;SDS011;16733;48.738;9.106;2023-02-22T17:35:14;17.02;;;6.75;;
29854;SDS011;16733;48.738;9.106;2023-02-22T17:37:44;16.73;;;7.38;;
29854;SDS011;16733;48.738;9.106;2023-02-22T17:43:33;17.25;;;7.32;;
29854;SDS011;16733;48.738;9.106;2023-02-22T17:45:59;13.20;;;7.18;;
29854;SDS011;16733;48.738;9.106;2023-02-22T17:48:24;20.92;;;7.20;;
29854;SDS011;16733;48.738;9.106;2023-02-22T17:54:12;15.70;;;7.50;;
29854;SDS011;16733;48.738;9.106;2023-02-22T17:56:38;16.77;;;7.05;;
29854;SDS011;16733;48.738;9.106;2023-02-22T18:02:25;13.13;;;6.53;;
29854;SDS011;16733;48.738;9.106;2023-02-22T18:04:51;13.98;;;7.40;;
29854;SDS011;16733;48.738;9.106;2023-02-22T18:10:39;14.68;;;7.70;;
29854;SDS011;16733;48.738;9.106;2023-02-22T18:13:06;15.05;;;6.38;;
29854;SDS011;16733;48.738;9.106;2023-02-22T18:15:32;18.05;;;6.82;;
29854;SDS011;16733;48.738;9.106;2023-02-22T18:21:22;16.60;;;7.13;;
29854;SDS011;16733;48.738;9.106;2023-02-22T18:23:48;21.35;;;7.28;;
29854;SDS011;16733;48.738;9.106;2023-02-22T18:26:17;15.25;;;6.65;;
29854;SDS011;16733;48.738;9.106;2023-02-22T18:28:44;15.60;;;6.03;;
29854;SDS011;16733;48.738;9.106;2023-02-22T18:31:13;19.08;;;7.25;;
29854;SDS011;16733;48.738;9.106;2023-02-22T18:33:40;19.88;;;8.32;;
29854;SDS011;16733;48.738;9.106;2023-02-22T18:36:07;20.17;;;7.72;;
29854;SDS011;16733;48.738;9.106;2023-02-22T18:41:57;16.80;;;8.10;;
29854;SDS011;16733;48.738;9.106;2023-02-22T18:44:23;18.55;;;7.55;;
29854;SDS011;16733;48.738;9.106;2023-02-22T18:46:51;16.85;;;7.55;;
29854;SDS011;16733;48.738;9.106;2023-02-22T18:49:18;14.70;;;7.32;;
29854;SDS011;16733;48.738;9.106;2023-02-22T18:51:43;14.25;;;7.32;;
29854;SDS011;16733;48.738;9.106;2023-02-22T18:54:10;14.15;;;6.82;;
29854;SDS011;16733;48.738;9.106;2023-02-22T18:56:36;19.65;;;8.05;;
29854;SDS011;16733;48.738;9.106;2023-02-22T18:59:04;20.98;;;7.20;;
29854;SDS011;16733;48.738;9.106;2023-02-22T19:04:54;14.00;;;6.20;;
29854;SDS011;16733;48.738;9.106;2023-02-22T19:07:21;12.93;;;5.50;;
29854;SDS011;16733;48.738;9.106;2023-02-22T19:13:12;15.70;;;5.80;;
29854;SDS011;16733;48.738;9.106;2023-02-22T19:15:39;10.65;;;6.43;;
29854;SDS011;16733;48.738;9.106;2023-02-22T19:18:04;14.55;;;6.22;;
29854;SDS011;16733;48.738;9.106;2023-02-22T19:23:52;12.27;;;6.15;;
29854;SDS011;16733;48.738;9.106;2023-02-22T19:26:18;18.73;;;7.05;;
29854;SDS011;16733;48.738;9.106;2023-02-22T19:28:48;13.10;;;7.15;;
29854;SDS011;16733;48.738;9.106;2023-02-22T19:31:22;14.75;;;7.13;;
29854;SDS011;16733;48.738;9.106;2023-02-22T19:33:50;11.02;;;6.05;;
29854;SDS011;16733;48.738;9.106;2023-02-22T19:36:16;15.68;;;6.97;;
29854;SDS011;16733;48.738;9.106;2023-02-22T19:38:43;13.40;;;6.57;;
29854;SDS011;16733;48.738;9.106;2023-02-22T19:44:31;14.05;;;6.32;;
29854;SDS011;16733;48.738;9.106;2023-02-22T19:46:57;15.93;;;7.07;;
29854;SDS011;16733;48.738;9.106;2023-02-22T19:49:23;14.15;;;7.57;;
29854;SDS011;16733;48.738;9.106;2023-02-22T19:51:49;15.23;;;7.18;;
29854;SDS011;16733;48.738;9.106;2023-02-22T19:57:38;15.60;;;6.43;;
29854;SDS011;16733;48.738;9.106;2023-02-22T20:00:04;15.10;;;6.57;;
29854;SDS011;16733;48.738;9.106;2023-02-22T20:02:37;16.17;;;7.30;;
29854;SDS011;16733;48.738;9.106;2023-02-22T20:05:04;17.80;;;7.15;;
29854;SDS011;16733;48.738;9.106;2023-02-22T20:07:37;10.18;;;6.15;;
29854;SDS011;16733;48.738;9.106;2023-02-22T20:10:03;18.23;;;7.78;;
29854;SDS011;16733;48.738;9.106;2023-02-22T20:15:51;20.83;;;7.05;;
29854;SDS011;16733;48.738;9.106;2023-02-22T20:18:18;11.77;;;6.55;;
29854;SDS011;16733;48.738;9.106;2023-02-22T20:20:45;15.73;;;7.70;;
29854;SDS011;16733;48.738;9.106;2023-02-22T20:23:11;17.48;;;7.80;;
29854;SDS011;16733;48.738;9.106;2023-02-22T20:25:36;15.18;;;7.35;;
29854;SDS011;16733;48.738;9.106;2023-02-22T20:28:02;15.10;;;7.80;;
29854;SDS011;16733;48.738;9.106;2023-02-22T20:30:28;13.45;;;7.05;;
29854;SDS011;16733;48.738;9.106;2023-02-22T20:32:55;17.10;;;6.45;;
29854;SDS011;16733;48.738;9.106;2023-02-22T20:38:43;11.50;;;6.30;;
29854;SDS011;16733;48.738;9.106;2023-02-22T20:41:14;20.10;;;7.07;;
29854;SDS011;16733;48.738;9.106;2023-02-22T20:43:43;16.60;;;7.10;;
29854;SDS011;16733;48.738;9.106;2023-02-22T20:46:12;14.88;;;6.22;;
29854;SDS011;16733;48.738;9.106;2023-02-22T20:48:39;14.85;;;7.85;;
29854;SDS011;16733;48.738;9.106;2023-02-22T20:51:09;14.80;;;6.53;;
29854;SDS011;16733;48.738;9.106;2023-02-22T20:53:36;17.15;;;7.60;;
29854;SDS011;16733;48.738;9.106;2023-02-22T20:56:10;12.93;;;6.43;;
29854;SDS011;16733;48.738;9.106;2023-02-22T20:58:37;16.98;;;7.80;;
29854;SDS011;16733;48.738;9.106;2023-02-22T21:01:06;12.77;;;7.07;;
29854;SDS011;16733;48.738;9.106;2023-02-22T21:03:36;16.58;;;7.25;;
29854;SDS011;16733;48.738;9.106;2023-02-22T21:09:24;12.60;;;7.43;;
29854;SDS011;16733;48.738;9.106;2023-02-22T21:18:33;12.32;;;5.88;;
29854;SDS011;16733;48.738;9.106;2023-02-22T21:24:22;15.60;;;6.97;;
29854;SDS011;16733;48.738;9.106;2023-02-22T21:26:49;18.40;;;8.23;;
29854;SDS011;16733;48.738;9.106;2023-02-22T21:29:18;19.65;;;6.93;;
29854;SDS011;16733;48.738;9.106;2023-02-22T21:31:44;15.73;;;7.85;;
29854;SDS011;16733;48.738;9.106;2023-02-22T21:37:31;19.85;;;8.13;;